sensor_id;sensor_type;location;lat;lon;timestamp;temperature;humidity
34646;DHT22;20857;47.808;12.482;2023-02-03T00:00:05;3.70;99.90
34646;DHT22;20857;47.808;12.482;2023-02-03T00:02:31;3.80;99.90
34646;DHT22;20857;47.808;12.482;2023-02-03T00:04:56;3.70;99.90
34646;DHT22;20857;47.808;12.482;2023-02-03T00:07:21;3.70;99.90
34646;DHT22;20857;47.808;12.482;2023-02-03T00:09:47;3.80;99.90
34646;DHT22;20857;47.808;12.482;2023-02-03T00:12:13;3.70;99.90
34646;DHT22;20857;47.808;12.482;2023-02-03T00:14:38;3.80;99.90
34646;DHT22;20857;47.808;12.482;2023-02-03T00:17:04;3.80;99.90
34646;DHT22;20857;47.808;12.482;2023-02-03T00:19:30;3.80;99.90
34646;DHT22;20857;47.808;12.482;2023-02-03T00:21:55;3.80;99.90
34646;DHT22;20857;47.808;12.482;2023-02-03T00:24:21;3.70;99.90
34646;DHT22;20857;47.808;12.482;2023-02-03T00:26:48;3.70;99.90
34646;DHT22;20857;47.808;12.482;2023-02-03T00:29:13;3.80;99.90
34646;DHT22;20857;47.808;12.482;2023-02-03T00:31:39;3.80;99.90
34646;DHT22;20857;47.808;12.482;2023-02-03T00:34:04;3.80;99.90
34646;DHT22;20857;47.808;12.482;2023-02-03T00:36:30;3.80;99.90
34646;DHT22;20857;47.808;12.482;2023-02-03T00:38:55;3.80;99.90
34646;DHT22;20857;47.808;12.482;2023-02-03T00:41:21;3.70;99.90
34646;DHT22;20857;47.808;12.482;2023-02-03T00:43:48;3.70;99.90
34646;DHT22;20857;47.808;12.482;2023-02-03T00:46:13;3.80;99.90
34646;DHT22;20857;47.808;12.482;2023-02-03T00:48:39;3.70;99.90
34646;DHT22;20857;47.808;12.482;2023-02-03T00:51:04;3.60;99.90
34646;DHT22;20857;47.808;12.482;2023-02-03T00:53:30;3.80;99.90
34646;DHT22;20857;47.808;12.482;2023-02-03T00:55:56;3.70;99.90
34646;DHT22;20857;47.808;12.482;2023-02-03T00:58:21;3.70;99.90
34646;DHT22;20857;47.808;12.482;2023-02-03T01:00:47;3.80;99.90
34646;DHT22;20857;47.808;12.482;2023-02-03T01:03:12;3.80;99.90
34646;DHT22;20857;47.808;12.482;2023-02-03T01:05:38;3.80;99.90
34646;DHT22;20857;47.808;12.482;2023-02-03T01:08:03;3.90;99.90
34646;DHT22;20857;47.808;12.482;2023-02-03T01:10:29;3.90;99.90
34646;DHT22;20857;47.808;12.482;2023-02-03T01:12:54;4.00;99.90
34646;DHT22;20857;47.808;12.482;2023-02-03T01:15:20;4.00;99.90
34646;DHT22;20857;47.808;12.482;2023-02-03T01:17:45;4.00;99.90
34646;DHT22;20857;47.808;12.482;2023-02-03T01:20:11;4.00;99.90
34646;DHT22;20857;47.808;12.482;2023-02-03T01:22:38;4.00;99.90
34646;DHT22;20857;47.808;12.482;2023-02-03T01:25:04;4.00;99.90
34646;DHT22;20857;47.808;12.482;2023-02-03T01:27:30;4.00;99.90
34646;DHT22;20857;47.808;12.482;2023-02-03T01:29:55;4.10;99.90
34646;DHT22;20857;47.808;12.482;2023-02-03T01:32:21;4.10;99.90
34646;DHT22;20857;47.808;12.482;2023-02-03T01:34:46;4.10;99.90
34646;DHT22;20857;47.808;12.482;2023-02-03T01:37:12;4.10;99.90
34646;DHT22;20857;47.808;12.482;2023-02-03T01:39:38;4.20;99.90
34646;DHT22;20857;47.808;12.482;2023-02-03T01:42:05;4.20;99.90
34646;DHT22;20857;47.808;12.482;2023-02-03T01:44:34;4.40;99.90
34646;DHT22;20857;47.808;12.482;2023-02-03T01:47:00;4.40;99.90
34646;DHT22;20857;47.808;12.482;2023-02-03T01:49:28;4.40;99.90
34646;DHT22;20857;47.808;12.482;2023-02-03T01:51:56;4.50;99.90
34646;DHT22;20857;47.808;12.482;2023-02-03T01:54:22;4.40;99.90
34646;DHT22;20857;47.808;12.482;2023-02-03T01:56:51;4.40;99.90
34646;DHT22;20857;47.808;12.482;2023-02-03T01:59:18;4.60;99.90
34646;DHT22;20857;47.808;12.482;2023-02-03T02:01:45;4.60;99.90
34646;DHT22;20857;47.808;12.482;2023-02-03T02:04:11;5.90;99.90
34646;DHT22;20857;47.808;12.482;2023-02-03T02:06:36;4.80;99.90
34646;DHT22;20857;47.808;12.482;2023-02-03T02:09:02;4.80;99.90
34646;DHT22;20857;47.808;12.482;2023-02-03T02:11:28;4.80;99.90
34646;DHT22;20857;47.808;12.482;2023-02-03T02:13:54;4.90;99.90
34646;DHT22;20857;47.808;12.482;2023-02-03T02:16:27;4.90;99.90
34646;DHT22;20857;47.808;12.482;2023-02-03T02:21:43;5.10;99.90
34646;DHT22;20857;47.808;12.482;2023-02-03T02:26:39;5.00;99.90
34646;DHT22;20857;47.808;12.482;2023-02-03T02:29:13;5.10;99.90
34646;DHT22;20857;47.808;12.482;2023-02-03T02:31:54;5.10;99.90
34646;DHT22;20857;47.808;12.482;2023-02-03T02:39:31;5.10;99.90
34646;DHT22;20857;47.808;12.482;2023-02-03T02:44:38;5.10;99.90
34646;DHT22;20857;47.808;12.482;2023-02-03T02:47:06;5.10;99.90
34646;DHT22;20857;47.808;12.482;2023-02-03T02:49:42;5.20;99.90
34646;DHT22;20857;47.808;12.482;2023-02-03T02:52:08;5.20;99.90
34646;DHT22;20857;47.808;12.482;2023-02-03T02:54:36;5.20;99.90
34646;DHT22;20857;47.808;12.482;2023-02-03T02:57:03;5.20;99.90
34646;DHT22;20857;47.808;12.482;2023-02-03T02:59:30;5.20;99.90
34646;DHT22;20857;47.808;12.482;2023-02-03T03:01:56;5.20;99.90
34646;DHT22;20857;47.808;12.482;2023-02-03T03:04:25;5.20;99.90
34646;DHT22;20857;47.808;12.482;2023-02-03T03:06:52;5.10;99.90
34646;DHT22;20857;47.808;12.482;2023-02-03T03:09:22;5.10;99.90
34646;DHT22;20857;47.808;12.482;2023-02-03T03:11:53;5.00;99.90
34646;DHT22;20857;47.808;12.482;2023-02-03T03:14:20;4.90;99.90
34646;DHT22;20857;47.808;12.482;2023-02-03T03:16:52;4.90;99.90
34646;DHT22;20857;47.808;12.482;2023-02-03T03:19:22;4.90;99.90
34646;DHT22;20857;47.808;12.482;2023-02-03T03:21:53;4.90;99.90
34646;DHT22;20857;47.808;12.482;2023-02-03T03:24:22;4.80;99.90
34646;DHT22;20857;47.808;12.482;2023-02-03T03:26:51;4.80;99.90
34646;DHT22;20857;47.808;12.482;2023-02-03T03:29:21;4.70;99.90
34646;DHT22;20857;47.808;12.482;2023-02-03T03:31:48;4.80;99.90
34646;DHT22;20857;47.808;12.482;2023-02-03T03:34:14;4.80;99.90
34646;DHT22;20857;47.808;12.482;2023-02-03T03:36:45;4.80;99.90
34646;DHT22;20857;47.808;12.482;2023-02-03T03:44:25;4.80;99.90
34646;DHT22;20857;47.808;12.482;2023-02-03T03:46:55;4.90;99.90
34646;DHT22;20857;47.808;12.482;2023-02-03T03:49:23;4.80;99.90
34646;DHT22;20857;47.808;12.482;2023-02-03T03:51:53;4.50;99.90
34646;DHT22;20857;47.808;12.482;2023-02-03T03:54:21;4.40;99.90
34646;DHT22;20857;47.808;12.482;2023-02-03T03:56:53;4.30;99.90
34646;DHT22;20857;47.808;12.482;2023-02-03T03:59:21;4.20;99.90
34646;DHT22;20857;47.808;12.482;2023-02-03T04:01:48;4.20;99.90
34646;DHT22;20857;47.808;12.482;2023-02-03T04:04:14;4.10;99.90
34646;DHT22;20857;47.808;12.482;2023-02-03T04:06:40;4.10;99.90
34646;DHT22;20857;47.808;12.482;2023-02-03T04:09:06;4.10;99.90
34646;DHT22;20857;47.808;12.482;2023-02-03T04:11:31;4.20;99.90
34646;DHT22;20857;47.808;12.482;2023-02-03T04:14:16;4.10;99.90
34646;DHT22;20857;47.808;12.482;2023-02-03T04:16:41;4.10;99.90
34646;DHT22;20857;47.808;12.482;2023-02-03T04:19:07;5.50;99.90
34646;DHT22;20857;47.808;12.482;2023-02-03T04:21:32;4.10;99.90
34646;DHT22;20857;47.808;12.482;2023-02-03T04:23:58;4.40;99.90
34646;DHT22;20857;47.808;12.482;2023-02-03T04:26:23;4.50;99.90
34646;DHT22;20857;47.808;12.482;2023-02-03T04:28:49;4.50;99.90
34646;DHT22;20857;47.808;12.482;2023-02-03T04:31:14;4.60;99.90
34646;DHT22;20857;47.808;12.482;2023-02-03T04:33:40;4.60;99.90
34646;DHT22;20857;47.808;12.482;2023-02-03T04:36:06;4.60;99.90
34646;DHT22;20857;47.808;12.482;2023-02-03T04:38:31;4.70;99.90
34646;DHT22;20857;47.808;12.482;2023-02-03T04:40:57;4.70;99.90
34646;DHT22;20857;47.808;12.482;2023-02-03T04:43:23;4.70;99.90
34646;DHT22;20857;47.808;12.482;2023-02-03T04:45:48;4.70;99.90
34646;DHT22;20857;47.808;12.482;2023-02-03T04:48:14;4.70;99.90
34646;DHT22;20857;47.808;12.482;2023-02-03T04:50:39;4.70;99.90
34646;DHT22;20857;47.808;12.482;2023-02-03T04:53:04;4.70;99.90
34646;DHT22;20857;47.808;12.482;2023-02-03T04:55:30;4.70;99.90
34646;DHT22;20857;47.808;12.482;2023-02-03T04:57:56;4.70;99.90
34646;DHT22;20857;47.808;12.482;2023-02-03T05:00:22;4.60;99.90
34646;DHT22;20857;47.808;12.482;2023-02-03T05:02:47;4.70;99.90
34646;DHT22;20857;47.808;12.482;2023-02-03T05:05:13;4.60;99.90
34646;DHT22;20857;47.808;12.482;2023-02-03T05:07:38;4.60;99.90
34646;DHT22;20857;47.808;12.482;2023-02-03T05:10:04;4.70;99.90
34646;DHT22;20857;47.808;12.482;2023-02-03T05:12:29;4.70;99.90
34646;DHT22;20857;47.808;12.482;2023-02-03T05:14:55;4.70;99.90
34646;DHT22;20857;47.808;12.482;2023-02-03T05:17:20;4.80;99.90
34646;DHT22;20857;47.808;12.482;2023-02-03T05:19:46;4.90;99.90
34646;DHT22;20857;47.808;12.482;2023-02-03T05:22:11;4.90;99.90
34646;DHT22;20857;47.808;12.482;2023-02-03T05:24:37;4.90;99.90
34646;DHT22;20857;47.808;12.482;2023-02-03T05:27:02;5.00;99.90
34646;DHT22;20857;47.808;12.482;2023-02-03T05:29:28;5.00;99.90
34646;DHT22;20857;47.808;12.482;2023-02-03T05:31:53;5.00;99.90
34646;DHT22;20857;47.808;12.482;2023-02-03T05:34:19;5.10;99.90
34646;DHT22;20857;47.808;12.482;2023-02-03T05:36:44;5.10;99.90
34646;DHT22;20857;47.808;12.482;2023-02-03T05:39:10;5.10;99.90
34646;DHT22;20857;47.808;12.482;2023-02-03T05:41:35;5.10;99.90
34646;DHT22;20857;47.808;12.482;2023-02-03T05:44:23;5.20;99.90
34646;DHT22;20857;47.808;12.482;2023-02-03T05:46:49;5.10;99.90
34646;DHT22;20857;47.808;12.482;2023-02-03T05:49:14;5.20;99.90
34646;DHT22;20857;47.808;12.482;2023-02-03T05:51:40;5.20;99.90
34646;DHT22;20857;47.808;12.482;2023-02-03T05:54:06;5.10;99.90
34646;DHT22;20857;47.808;12.482;2023-02-03T05:56:31;5.10;99.90
34646;DHT22;20857;47.808;12.482;2023-02-03T05:58:57;5.10;99.90
34646;DHT22;20857;47.808;12.482;2023-02-03T06:01:22;5.00;99.90
34646;DHT22;20857;47.808;12.482;2023-02-03T06:03:48;5.00;99.90
34646;DHT22;20857;47.808;12.482;2023-02-03T06:06:14;5.00;99.90
34646;DHT22;20857;47.808;12.482;2023-02-03T06:08:39;5.00;99.90
34646;DHT22;20857;47.808;12.482;2023-02-03T06:11:05;5.10;99.90
34646;DHT22;20857;47.808;12.482;2023-02-03T06:13:30;5.00;99.90
34646;DHT22;20857;47.808;12.482;2023-02-03T06:15:56;5.00;99.90
34646;DHT22;20857;47.808;12.482;2023-02-03T06:18:21;5.10;99.90
34646;DHT22;20857;47.808;12.482;2023-02-03T06:20:47;5.10;99.90
34646;DHT22;20857;47.808;12.482;2023-02-03T06:23:12;5.20;99.90
34646;DHT22;20857;47.808;12.482;2023-02-03T06:25:38;6.50;99.90
34646;DHT22;20857;47.808;12.482;2023-02-03T06:28:03;5.20;99.90
34646;DHT22;20857;47.808;12.482;2023-02-03T06:30:29;5.20;99.90
34646;DHT22;20857;47.808;12.482;2023-02-03T06:32:54;5.30;99.90
34646;DHT22;20857;47.808;12.482;2023-02-03T06:35:20;6.70;99.90
34646;DHT22;20857;47.808;12.482;2023-02-03T06:37:45;5.40;99.90
34646;DHT22;20857;47.808;12.482;2023-02-03T06:40:11;5.40;99.90
34646;DHT22;20857;47.808;12.482;2023-02-03T06:42:37;5.40;99.90
34646;DHT22;20857;47.808;12.482;2023-02-03T06:45:02;5.40;99.90
34646;DHT22;20857;47.808;12.482;2023-02-03T06:47:28;5.40;99.90
34646;DHT22;20857;47.808;12.482;2023-02-03T06:49:53;5.40;99.90
34646;DHT22;20857;47.808;12.482;2023-02-03T06:52:19;6.80;99.90
34646;DHT22;20857;47.808;12.482;2023-02-03T06:54:44;5.40;99.90
34646;DHT22;20857;47.808;12.482;2023-02-03T06:57:10;5.30;99.90
34646;DHT22;20857;47.808;12.482;2023-02-03T06:59:35;7.10;99.90
34646;DHT22;20857;47.808;12.482;2023-02-03T07:02:01;5.20;99.90
34646;DHT22;20857;47.808;12.482;2023-02-03T07:04:26;5.30;99.90
34646;DHT22;20857;47.808;12.482;2023-02-03T07:06:55;6.00;99.90
34646;DHT22;20857;47.808;12.482;2023-02-03T07:09:21;5.30;99.90
34646;DHT22;20857;47.808;12.482;2023-02-03T07:11:47;5.30;99.90
34646;DHT22;20857;47.808;12.482;2023-02-03T07:14:12;5.30;99.90
34646;DHT22;20857;47.808;12.482;2023-02-03T07:16:38;5.30;99.90
34646;DHT22;20857;47.808;12.482;2023-02-03T07:19:03;5.30;99.90
34646;DHT22;20857;47.808;12.482;2023-02-03T07:21:29;5.30;99.90
34646;DHT22;20857;47.808;12.482;2023-02-03T07:23:54;5.30;99.90
34646;DHT22;20857;47.808;12.482;2023-02-03T07:26:20;5.20;99.90
34646;DHT22;20857;47.808;12.482;2023-02-03T07:28:47;5.30;99.90
34646;DHT22;20857;47.808;12.482;2023-02-03T07:31:13;5.30;99.90
34646;DHT22;20857;47.808;12.482;2023-02-03T07:33:38;5.30;99.90
34646;DHT22;20857;47.808;12.482;2023-02-03T07:36:04;5.30;99.90
34646;DHT22;20857;47.808;12.482;2023-02-03T07:38:30;5.20;99.90
34646;DHT22;20857;47.808;12.482;2023-02-03T07:40:56;5.30;99.90
34646;DHT22;20857;47.808;12.482;2023-02-03T07:43:21;5.30;99.90
34646;DHT22;20857;47.808;12.482;2023-02-03T07:45:47;5.30;99.90
34646;DHT22;20857;47.808;12.482;2023-02-03T07:48:12;6.10;99.90
34646;DHT22;20857;47.808;12.482;2023-02-03T07:50:38;5.30;99.90
34646;DHT22;20857;47.808;12.482;2023-02-03T07:53:04;5.30;99.90
34646;DHT22;20857;47.808;12.482;2023-02-03T07:55:30;5.30;99.90
34646;DHT22;20857;47.808;12.482;2023-02-03T07:57:56;5.40;99.90
34646;DHT22;20857;47.808;12.482;2023-02-03T08:00:22;5.60;99.90
34646;DHT22;20857;47.808;12.482;2023-02-03T08:02:48;5.60;99.90
34646;DHT22;20857;47.808;12.482;2023-02-03T08:05:13;5.60;99.90
34646;DHT22;20857;47.808;12.482;2023-02-03T08:07:39;5.70;99.90
34646;DHT22;20857;47.808;12.482;2023-02-03T08:10:06;5.70;99.90
34646;DHT22;20857;47.808;12.482;2023-02-03T08:12:31;5.70;99.90
34646;DHT22;20857;47.808;12.482;2023-02-03T08:14:57;5.80;99.90
34646;DHT22;20857;47.808;12.482;2023-02-03T08:17:22;5.90;99.90
34646;DHT22;20857;47.808;12.482;2023-02-03T08:19:48;7.40;99.90
34646;DHT22;20857;47.808;12.482;2023-02-03T08:22:13;6.20;99.90
34646;DHT22;20857;47.808;12.482;2023-02-03T08:24:42;6.20;99.90
34646;DHT22;20857;47.808;12.482;2023-02-03T08:27:19;6.30;99.90
34646;DHT22;20857;47.808;12.482;2023-02-03T08:29:45;6.20;99.90
34646;DHT22;20857;47.808;12.482;2023-02-03T08:32:12;6.40;99.90
34646;DHT22;20857;47.808;12.482;2023-02-03T08:34:38;6.50;99.90
34646;DHT22;20857;47.808;12.482;2023-02-03T08:37:04;6.50;99.90
34646;DHT22;20857;47.808;12.482;2023-02-03T08:39:29;7.20;99.90
34646;DHT22;20857;47.808;12.482;2023-02-03T08:41:55;6.70;99.90
34646;DHT22;20857;47.808;12.482;2023-02-03T08:44:20;6.70;99.90
34646;DHT22;20857;47.808;12.482;2023-02-03T08:46:49;6.70;99.90
34646;DHT22;20857;47.808;12.482;2023-02-03T08:49:15;6.70;99.90
34646;DHT22;20857;47.808;12.482;2023-02-03T08:51:40;6.70;99.90
34646;DHT22;20857;47.808;12.482;2023-02-03T08:54:06;6.60;99.90
34646;DHT22;20857;47.808;12.482;2023-02-03T08:56:31;6.60;99.90
34646;DHT22;20857;47.808;12.482;2023-02-03T08:58:58;6.70;99.90
34646;DHT22;20857;47.808;12.482;2023-02-03T09:01:24;6.70;99.90
34646;DHT22;20857;47.808;12.482;2023-02-03T09:03:49;6.80;99.90
34646;DHT22;20857;47.808;12.482;2023-02-03T09:06:15;6.80;99.90
34646;DHT22;20857;47.808;12.482;2023-02-03T09:08:41;6.80;99.90
34646;DHT22;20857;47.808;12.482;2023-02-03T09:11:09;6.80;99.90
34646;DHT22;20857;47.808;12.482;2023-02-03T09:13:35;6.80;99.90
34646;DHT22;20857;47.808;12.482;2023-02-03T09:16:01;6.90;99.90
34646;DHT22;20857;47.808;12.482;2023-02-03T09:18:27;6.80;99.90
34646;DHT22;20857;47.808;12.482;2023-02-03T09:20:58;6.70;99.90
34646;DHT22;20857;47.808;12.482;2023-02-03T09:23:24;6.80;99.90
34646;DHT22;20857;47.808;12.482;2023-02-03T09:25:49;6.80;99.90
34646;DHT22;20857;47.808;12.482;2023-02-03T09:28:15;6.80;99.90
34646;DHT22;20857;47.808;12.482;2023-02-03T09:30:40;7.60;99.90
34646;DHT22;20857;47.808;12.482;2023-02-03T09:33:06;8.50;99.90
34646;DHT22;20857;47.808;12.482;2023-02-03T09:35:31;7.90;99.90
34646;DHT22;20857;47.808;12.482;2023-02-03T09:37:57;6.90;99.90
34646;DHT22;20857;47.808;12.482;2023-02-03T09:40:24;7.60;99.90
34646;DHT22;20857;47.808;12.482;2023-02-03T09:43:01;6.90;99.90
34646;DHT22;20857;47.808;12.482;2023-02-03T09:45:29;7.00;99.90
34646;DHT22;20857;47.808;12.482;2023-02-03T09:48:14;6.90;99.90
34646;DHT22;20857;47.808;12.482;2023-02-03T09:50:40;6.90;99.90
34646;DHT22;20857;47.808;12.482;2023-02-03T09:53:11;7.00;99.90
34646;DHT22;20857;47.808;12.482;2023-02-03T09:55:38;7.00;99.90
34646;DHT22;20857;47.808;12.482;2023-02-03T09:58:07;7.00;99.90
34646;DHT22;20857;47.808;12.482;2023-02-03T10:00:43;7.00;99.90
34646;DHT22;20857;47.808;12.482;2023-02-03T10:03:20;7.10;99.90
34646;DHT22;20857;47.808;12.482;2023-02-03T10:06:01;7.20;99.90
34646;DHT22;20857;47.808;12.482;2023-02-03T10:19:32;7.30;99.90
34646;DHT22;20857;47.808;12.482;2023-02-03T10:21:59;7.30;99.90
34646;DHT22;20857;47.808;12.482;2023-02-03T10:24:38;7.20;99.90
34646;DHT22;20857;47.808;12.482;2023-02-03T10:27:05;7.20;99.90
34646;DHT22;20857;47.808;12.482;2023-02-03T10:29:34;7.20;99.90
34646;DHT22;20857;47.808;12.482;2023-02-03T10:32:01;7.20;99.90
34646;DHT22;20857;47.808;12.482;2023-02-03T10:34:27;7.20;99.90
34646;DHT22;20857;47.808;12.482;2023-02-03T10:37:02;7.20;99.90
34646;DHT22;20857;47.808;12.482;2023-02-03T10:39:49;7.20;99.90
34646;DHT22;20857;47.808;12.482;2023-02-03T10:42:15;7.30;99.90
34646;DHT22;20857;47.808;12.482;2023-02-03T10:44:42;7.40;99.90
34646;DHT22;20857;47.808;12.482;2023-02-03T10:47:12;7.30;99.90
34646;DHT22;20857;47.808;12.482;2023-02-03T10:49:40;7.40;99.90
34646;DHT22;20857;47.808;12.482;2023-02-03T10:52:07;7.70;99.90
34646;DHT22;20857;47.808;12.482;2023-02-03T10:54:48;7.40;99.90
34646;DHT22;20857;47.808;12.482;2023-02-03T10:57:13;7.40;99.90
34646;DHT22;20857;47.808;12.482;2023-02-03T10:59:40;7.40;99.90
34646;DHT22;20857;47.808;12.482;2023-02-03T11:02:18;8.80;99.90
34646;DHT22;20857;47.808;12.482;2023-02-03T11:04:45;7.60;99.90
34646;DHT22;20857;47.808;12.482;2023-02-03T11:07:22;7.60;99.90
34646;DHT22;20857;47.808;12.482;2023-02-03T11:09:48;7.50;99.90
34646;DHT22;20857;47.808;12.482;2023-02-03T11:12:19;7.60;99.90
34646;DHT22;20857;47.808;12.482;2023-02-03T11:14:48;7.70;99.90
34646;DHT22;20857;47.808;12.482;2023-02-03T11:19:41;7.70;99.90
34646;DHT22;20857;47.808;12.482;2023-02-03T11:22:07;9.30;99.90
34646;DHT22;20857;47.808;12.482;2023-02-03T11:24:36;7.70;99.90
34646;DHT22;20857;47.808;12.482;2023-02-03T11:27:03;7.60;99.90
34646;DHT22;20857;47.808;12.482;2023-02-03T11:29:37;7.60;99.90
34646;DHT22;20857;47.808;12.482;2023-02-03T11:32:32;7.60;99.90
34646;DHT22;20857;47.808;12.482;2023-02-03T11:35:03;7.60;99.90
34646;DHT22;20857;47.808;12.482;2023-02-03T11:37:33;7.60;99.90
34646;DHT22;20857;47.808;12.482;2023-02-03T11:42:31;7.80;99.90
34646;DHT22;20857;47.808;12.482;2023-02-03T11:47:45;7.80;99.90
34646;DHT22;20857;47.808;12.482;2023-02-03T11:52:41;7.80;99.90
34646;DHT22;20857;47.808;12.482;2023-02-03T12:23:36;7.60;99.90
34646;DHT22;20857;47.808;12.482;2023-02-03T12:28:48;7.40;99.90
34646;DHT22;20857;47.808;12.482;2023-02-03T12:33:50;7.40;99.90
34646;DHT22;20857;47.808;12.482;2023-02-03T12:36:40;7.60;99.90
34646;DHT22;20857;47.808;12.482;2023-02-03T12:41:30;7.40;99.90
34646;DHT22;20857;47.808;12.482;2023-02-03T12:43:59;7.30;99.90
34646;DHT22;20857;47.808;12.482;2023-02-03T12:46:36;7.30;99.90
34646;DHT22;20857;47.808;12.482;2023-02-03T12:49:23;7.30;99.90
34646;DHT22;20857;47.808;12.482;2023-02-03T12:57:12;7.40;99.90
34646;DHT22;20857;47.808;12.482;2023-02-03T12:59:39;7.40;99.90
34646;DHT22;20857;47.808;12.482;2023-02-03T13:02:17;7.40;99.90
34646;DHT22;20857;47.808;12.482;2023-02-03T13:04:52;7.40;99.90
34646;DHT22;20857;47.808;12.482;2023-02-03T13:12:34;7.50;99.90
34646;DHT22;20857;47.808;12.482;2023-02-03T13:17:40;7.40;99.90
34646;DHT22;20857;47.808;12.482;2023-02-03T13:20:27;7.20;99.90
34646;DHT22;20857;47.808;12.482;2023-02-03T13:22:55;7.10;99.90
34646;DHT22;20857;47.808;12.482;2023-02-03T13:25:26;7.10;99.90
34646;DHT22;20857;47.808;12.482;2023-02-03T13:30:24;7.50;99.90
34646;DHT22;20857;47.808;12.482;2023-02-03T13:35:28;7.00;99.90
34646;DHT22;20857;47.808;12.482;2023-02-03T13:38:10;6.90;99.90
34646;DHT22;20857;47.808;12.482;2023-02-03T13:43:10;6.90;99.90
34646;DHT22;20857;47.808;12.482;2023-02-03T13:45:40;6.90;99.90
34646;DHT22;20857;47.808;12.482;2023-02-03T13:48:08;6.80;99.90
34646;DHT22;20857;47.808;12.482;2023-02-03T13:50:35;6.80;99.90
34646;DHT22;20857;47.808;12.482;2023-02-03T13:53:02;6.70;99.90
34646;DHT22;20857;47.808;12.482;2023-02-03T13:55:38;6.70;99.90
34646;DHT22;20857;47.808;12.482;2023-02-03T13:58:05;6.70;99.90
34646;DHT22;20857;47.808;12.482;2023-02-03T14:13:34;6.70;99.90
34646;DHT22;20857;47.808;12.482;2023-02-03T14:18:44;6.70;99.90
34646;DHT22;20857;47.808;12.482;2023-02-03T14:21:11;6.60;99.90
34646;DHT22;20857;47.808;12.482;2023-02-03T14:23:39;6.70;99.90
34646;DHT22;20857;47.808;12.482;2023-02-03T14:26:05;6.60;99.90
34646;DHT22;20857;47.808;12.482;2023-02-03T14:28:40;6.60;99.90
34646;DHT22;20857;47.808;12.482;2023-02-03T14:31:10;6.60;99.90
34646;DHT22;20857;47.808;12.482;2023-02-03T14:33:49;6.60;99.90
34646;DHT22;20857;47.808;12.482;2023-02-03T14:36:35;6.60;99.90
34646;DHT22;20857;47.808;12.482;2023-02-03T14:39:45;6.60;99.90
34646;DHT22;20857;47.808;12.482;2023-02-03T15:02:16;6.60;99.90
34646;DHT22;20857;47.808;12.482;2023-02-03T15:04:43;6.60;99.90
34646;DHT22;20857;47.808;12.482;2023-02-03T15:09:59;6.60;99.90
34646;DHT22;20857;47.808;12.482;2023-02-03T15:12:25;6.50;99.90
34646;DHT22;20857;47.808;12.482;2023-02-03T15:14:51;6.60;99.90
34646;DHT22;20857;47.808;12.482;2023-02-03T15:17:22;6.60;99.90
34646;DHT22;20857;47.808;12.482;2023-02-03T15:19:48;6.60;99.90
34646;DHT22;20857;47.808;12.482;2023-02-03T15:22:20;6.50;99.90
34646;DHT22;20857;47.808;12.482;2023-02-03T15:24:46;6.50;99.90
34646;DHT22;20857;47.808;12.482;2023-02-03T15:27:19;6.60;99.90
34646;DHT22;20857;47.808;12.482;2023-02-03T15:29:46;6.60;99.90
34646;DHT22;20857;47.808;12.482;2023-02-03T15:32:13;6.60;99.90
34646;DHT22;20857;47.808;12.482;2023-02-03T15:37:18;8.70;99.90
34646;DHT22;20857;47.808;12.482;2023-02-03T15:39:47;6.60;99.90
34646;DHT22;20857;47.808;12.482;2023-02-03T15:42:26;6.70;99.90
34646;DHT22;20857;47.808;12.482;2023-02-03T15:45:08;6.60;99.90
34646;DHT22;20857;47.808;12.482;2023-02-03T15:47:40;6.60;99.90
34646;DHT22;20857;47.808;12.482;2023-02-03T15:52:50;6.70;99.90
34646;DHT22;20857;47.808;12.482;2023-02-03T15:55:19;6.90;99.90
34646;DHT22;20857;47.808;12.482;2023-02-03T15:57:47;6.60;99.90
34646;DHT22;20857;47.808;12.482;2023-02-03T16:00:34;6.60;99.90
34646;DHT22;20857;47.808;12.482;2023-02-03T16:03:01;6.60;99.90
34646;DHT22;20857;47.808;12.482;2023-02-03T16:05:29;6.60;99.90
34646;DHT22;20857;47.808;12.482;2023-02-03T16:07:55;6.60;99.90
34646;DHT22;20857;47.808;12.482;2023-02-03T16:12:49;6.70;99.90
34646;DHT22;20857;47.808;12.482;2023-02-03T16:15:21;8.10;99.90
34646;DHT22;20857;47.808;12.482;2023-02-03T16:17:52;6.60;99.90
34646;DHT22;20857;47.808;12.482;2023-02-03T16:20:19;6.60;99.90
34646;DHT22;20857;47.808;12.482;2023-02-03T16:22:55;6.70;99.90
34646;DHT22;20857;47.808;12.482;2023-02-03T16:25:25;6.70;99.90
34646;DHT22;20857;47.808;12.482;2023-02-03T16:27:55;6.70;99.90
34646;DHT22;20857;47.808;12.482;2023-02-03T16:30:49;6.70;99.90
34646;DHT22;20857;47.808;12.482;2023-02-03T16:33:34;6.70;99.90
34646;DHT22;20857;47.808;12.482;2023-02-03T16:36:18;6.70;99.90
34646;DHT22;20857;47.808;12.482;2023-02-03T16:39:07;6.70;99.90
34646;DHT22;20857;47.808;12.482;2023-02-03T16:41:52;6.80;99.90
34646;DHT22;20857;47.808;12.482;2023-02-03T16:44:36;6.90;99.90
34646;DHT22;20857;47.808;12.482;2023-02-03T16:47:25;6.90;99.90
34646;DHT22;20857;47.808;12.482;2023-02-03T16:50:13;6.90;99.90
34646;DHT22;20857;47.808;12.482;2023-02-03T16:52:57;6.90;99.90
34646;DHT22;20857;47.808;12.482;2023-02-03T16:55:22;6.90;99.90
34646;DHT22;20857;47.808;12.482;2023-02-03T16:57:48;7.00;99.90
34646;DHT22;20857;47.808;12.482;2023-02-03T17:00:16;7.00;99.90
34646;DHT22;20857;47.808;12.482;2023-02-03T17:02:41;7.00;99.90
34646;DHT22;20857;47.808;12.482;2023-02-03T17:05:07;6.90;99.90
34646;DHT22;20857;47.808;12.482;2023-02-03T17:07:32;6.90;99.90
34646;DHT22;20857;47.808;12.482;2023-02-03T17:09:58;7.00;99.90
34646;DHT22;20857;47.808;12.482;2023-02-03T17:12:24;7.00;99.90
34646;DHT22;20857;47.808;12.482;2023-02-03T17:14:50;8.00;99.90
34646;DHT22;20857;47.808;12.482;2023-02-03T17:17:16;7.90;99.90
34646;DHT22;20857;47.808;12.482;2023-02-03T17:19:42;8.30;99.90
34646;DHT22;20857;47.808;12.482;2023-02-03T17:22:07;7.00;99.90
34646;DHT22;20857;47.808;12.482;2023-02-03T17:24:33;7.00;99.90
34646;DHT22;20857;47.808;12.482;2023-02-03T17:26:59;6.90;99.90
34646;DHT22;20857;47.808;12.482;2023-02-03T17:29:24;6.90;99.90
34646;DHT22;20857;47.808;12.482;2023-02-03T17:31:50;6.90;99.90
34646;DHT22;20857;47.808;12.482;2023-02-03T17:34:15;8.00;99.90
34646;DHT22;20857;47.808;12.482;2023-02-03T17:36:41;6.70;99.90
34646;DHT22;20857;47.808;12.482;2023-02-03T17:39:06;8.10;99.90
34646;DHT22;20857;47.808;12.482;2023-02-03T17:41:32;6.60;99.90
34646;DHT22;20857;47.808;12.482;2023-02-03T17:43:57;6.60;99.90
34646;DHT22;20857;47.808;12.482;2023-02-03T17:46:23;6.60;99.90
34646;DHT22;20857;47.808;12.482;2023-02-03T17:48:49;6.70;99.90
34646;DHT22;20857;47.808;12.482;2023-02-03T17:51:19;6.70;99.90
34646;DHT22;20857;47.808;12.482;2023-02-03T17:53:47;6.70;99.90
34646;DHT22;20857;47.808;12.482;2023-02-03T17:56:20;6.70;99.90
34646;DHT22;20857;47.808;12.482;2023-02-03T17:58:47;6.70;99.90